createdAt,value
2023-08-12T00:00:22.616Z,97505.38
2023-08-12T00:01:26.314Z,97502.53
2023-08-12T00:02:28.707Z,97510.44
2023-08-12T00:03:31.098Z,97507.00
2023-08-12T00:04:33.077Z,97504.38
2023-08-12T00:05:36.995Z,97506.53
2023-08-12T00:06:38.884Z,97508.03
2023-08-12T00:07:44.130Z,97505.38
2023-08-12T00:08:46.104Z,97507.22
2023-08-12T00:09:48.021Z,97506.44
2023-08-12T00:10:50.140Z,97504.81
2023-08-12T00:11:52.158Z,97509.06
2023-08-12T00:12:54.136Z,97501.16
2023-08-12T00:13:56.062Z,97514.09
2023-08-12T00:14:58.057Z,97511.69
2023-08-12T00:16:00.166Z,97509.66
2023-08-12T00:17:02.185Z,97503.56
2023-08-12T00:18:08.020Z,97509.66
2023-08-12T00:19:10.070Z,97503.56
2023-08-12T00:20:13.771Z,97501.75
2023-08-12T00:21:16.540Z,97501.75
2023-08-12T00:22:18.676Z,97493.00
2023-08-12T00:23:20.920Z,97498.28
2023-08-12T00:24:22.962Z,97498.28
2023-08-12T00:25:25.008Z,97492.00
2023-08-12T00:26:28.189Z,97490.16
2023-08-12T00:27:30.125Z,97487.09
2023-08-12T00:28:32.205Z,97498.44
2023-08-12T00:29:34.574Z,97489.94
2023-08-12T00:30:36.553Z,97484.31
2023-08-12T00:31:38.846Z,97487.41
2023-08-12T00:32:42.251Z,97489.59
2023-08-12T00:33:44.238Z,97486.16
2023-08-12T00:34:46.145Z,97495.31
2023-08-12T00:35:48.057Z,97487.84
2023-08-12T00:36:50.084Z,97488.44
2023-08-12T00:37:52.336Z,97487.16
2023-08-12T00:38:54.496Z,97485.38
2023-08-12T00:39:56.512Z,97478.03
2023-08-12T00:40:59.439Z,97484.91
2023-08-12T00:42:01.502Z,97480.22
2023-08-12T00:43:04.733Z,97479.63
2023-08-12T00:44:06.787Z,97483.31
2023-08-12T00:45:14.371Z,97485.69
2023-08-12T00:46:16.702Z,97483.63
2023-08-12T00:47:18.946Z,97477.78
2023-08-12T00:48:21.031Z,97482.84
2023-08-12T00:49:25.320Z,97475.16
2023-08-12T00:50:27.450Z,97475.97
2023-08-12T00:51:29.825Z,97470.72
2023-08-12T00:52:31.743Z,97464.03
2023-08-12T00:53:33.679Z,97472.97
2023-08-12T00:54:35.744Z,97467.94
2023-08-12T00:55:37.756Z,97467.94
2023-08-12T00:56:39.811Z,97464.28
2023-08-12T00:57:41.934Z,97471.16
2023-08-12T00:58:44.766Z,97466.69
2023-08-12T00:59:46.810Z,97462.22
2023-08-12T01:00:48.818Z,97471.16
2023-08-12T01:01:51.604Z,97466.47
2023-08-12T01:02:55.325Z,97467.03
2023-08-12T01:03:58.569Z,97462.81
2023-08-12T01:05:00.790Z,97470.94
2023-08-12T01:06:04.061Z,97464.88
2023-08-12T01:07:05.989Z,97467.72
2023-08-12T01:08:08.669Z,97457.94
2023-08-12T01:09:11.137Z,97458.97
2023-08-12T01:10:16.712Z,97461.94
2023-08-12T01:11:37.099Z,97460.91
2023-08-12T01:12:46.215Z,97454.38
2023-08-12T01:14:00.238Z,97457.56
2023-08-12T01:15:18.876Z,97459.78
2023-08-12T01:16:23.437Z,97459.56
2023-08-12T01:17:30.274Z,97467.22
2023-08-12T01:18:33.100Z,97467.00
2023-08-12T01:19:37.898Z,97459.88
2023-08-12T01:20:40.434Z,97466.78
2023-08-12T01:21:47.437Z,97467.56
2023-08-12T01:22:51.511Z,97463.09
2023-08-12T01:23:53.792Z,97461.50
2023-08-12T01:24:56.578Z,97466.78
2023-08-12T01:25:58.520Z,97458.88
2023-08-12T01:27:00.783Z,97462.09
2023-08-12T01:28:02.606Z,97456.25
2023-08-12T01:29:04.968Z,97460.94
2023-08-12T01:30:07.485Z,97462.78
2023-08-12T01:31:16.559Z,97459.88
2023-08-12T01:32:32.567Z,97458.88
2023-08-12T01:33:43.651Z,97463.94
2023-08-12T01:34:57.995Z,97458.66
2023-08-12T01:36:14.601Z,97451.78
2023-08-12T01:37:26.078Z,97463.09
2023-08-12T01:38:29.816Z,97460.47
2023-08-12T01:39:34.929Z,97464.56
2023-08-12T01:40:41.405Z,97458.97
2023-08-12T01:41:43.396Z,97458.16
2023-08-12T01:42:47.332Z,97466.06
2023-08-12T01:43:49.768Z,97462.41
2023-08-12T01:44:51.892Z,97464.47
2023-08-12T01:45:57.057Z,97461.84
2023-08-12T01:47:00.924Z,97465.03
2023-08-12T01:48:03.886Z,97468.47
2023-08-12T01:49:06.015Z,97467.22
2023-08-12T01:50:08.062Z,97466.41
2023-08-12T01:51:10.065Z,97459.09
2023-08-12T01:52:12.451Z,97459.31
2023-08-12T01:53:14.273Z,97468.25
2023-08-12T01:54:16.232Z,97461.84
2023-08-12T01:55:18.143Z,97461.25
2023-08-12T01:56:20.062Z,97463.31
2023-08-12T01:57:22.223Z,97468.56
2023-08-12T01:58:24.116Z,97467.41
2023-08-12T01:59:26.101Z,97459.53
2023-08-12T02:00:28.115Z,97468.78
2023-08-12T02:01:30.196Z,97464.22
2023-08-12T02:02:32.274Z,97466.63
2023-08-12T02:03:34.492Z,97467.84
2023-08-12T02:04:38.504Z,97460.78
2023-08-12T02:05:40.445Z,97465.78
2023-08-12T02:06:42.451Z,97467.41
2023-08-12T02:07:44.817Z,97465.38
2023-08-12T02:08:46.778Z,97463.75
2023-08-12T02:09:48.773Z,97467.78
2023-08-12T02:10:50.650Z,97465.16
2023-08-12T02:11:52.588Z,97464.91
2023-08-12T02:12:54.529Z,97463.31
2023-08-12T02:13:56.658Z,97463.31
2023-08-12T02:14:58.654Z,97457.25
2023-08-12T02:16:00.586Z,97468.00
2023-08-12T02:17:03.056Z,97462.72
2023-08-12T02:18:05.158Z,97461.69
2023-08-12T02:19:07.147Z,97460.09
2023-08-12T02:20:09.277Z,97458.47
2023-08-12T02:21:11.260Z,97461.56
2023-08-12T02:22:13.227Z,97457.31
2023-08-12T02:23:15.595Z,97455.94
2023-08-12T02:24:17.571Z,97458.00
2023-08-12T02:25:19.627Z,97456.03
2023-08-12T02:26:21.767Z,97450.41
2023-08-12T02:27:23.745Z,97448.56
2023-08-12T02:28:25.799Z,97451.00
2023-08-12T02:29:28.095Z,97453.41
2023-08-12T02:30:30.414Z,97450.19
2023-08-12T02:31:32.468Z,97461.31
2023-08-12T02:32:34.579Z,97453.41
2023-08-12T02:33:36.554Z,97458.47
2023-08-12T02:34:38.568Z,97457.63
2023-08-12T02:35:40.514Z,97456.03
2023-08-12T02:36:42.413Z,97458.69
2023-08-12T02:37:44.292Z,97451.78
2023-08-12T02:38:46.193Z,97452.00
2023-08-12T02:39:48.637Z,97450.19
2023-08-12T02:40:51.430Z,97441.72
2023-08-12T02:41:53.485Z,97449.03
2023-08-12T02:42:55.411Z,97450.03
2023-08-12T02:43:57.413Z,97443.19
2023-08-12T02:45:01.280Z,97444.41
2023-08-12T02:46:03.500Z,97437.56
2023-08-12T02:47:05.653Z,97442.38
2023-08-12T02:48:07.996Z,97447.06
2023-08-12T02:49:09.860Z,97434.72
2023-08-12T02:50:11.966Z,97441.78
2023-08-12T02:51:15.082Z,97438.34
2023-08-12T02:52:16.977Z,97439.41
2023-08-12T02:53:18.920Z,97440.41
2023-08-12T02:54:20.804Z,97436.63
2023-08-12T02:55:22.760Z,97442.94
2023-08-12T02:56:24.825Z,97442.34
2023-08-12T02:57:27.054Z,97433.28
2023-08-12T02:58:29.096Z,97444.41
2023-08-12T02:59:31.544Z,97441.53
2023-08-12T03:00:33.533Z,97437.09
2023-08-12T03:01:35.540Z,97443.13
2023-08-12T03:02:37.586Z,97438.66
2023-08-12T03:03:39.534Z,97429.41
2023-08-12T03:04:41.442Z,97435.47
2023-08-12T03:05:46.717Z,97431.25
2023-08-12T03:06:48.663Z,97424.94
2023-08-12T03:07:52.970Z,97427.19
2023-08-12T03:08:54.962Z,97424.56
2023-08-12T03:09:56.899Z,97423.78
2023-08-12T03:11:03.495Z,97430.66
2023-08-12T03:12:06.105Z,97430.28
2023-08-12T03:13:08.160Z,97437.59
2023-08-12T03:14:10.853Z,97431.53
2023-08-12T03:15:12.977Z,97429.91
2023-08-12T03:16:15.609Z,97428.09
2023-08-12T03:17:17.781Z,97428.09
2023-08-12T03:18:19.692Z,97433.59
2023-08-12T03:19:21.554Z,97433.44
2023-08-12T03:20:24.338Z,97432.81
2023-08-12T03:21:26.293Z,97438.88
2023-08-12T03:22:31.438Z,97428.81
2023-08-12T03:23:33.408Z,97438.97
2023-08-12T03:24:35.490Z,97437.94
2023-08-12T03:25:37.364Z,97433.25
2023-08-12T03:26:39.295Z,97421.94
2023-08-12T03:27:41.749Z,97427.34
2023-08-12T03:28:43.615Z,97423.91
2023-08-12T03:29:45.557Z,97421.88
2023-08-12T03:30:54.622Z,97426.13
2023-08-12T03:31:56.874Z,97425.53
2023-08-12T03:32:59.061Z,97427.56
2023-08-12T03:34:02.039Z,97423.91
2023-08-12T03:35:05.251Z,97420.06
2023-08-12T03:36:07.726Z,97423.09
2023-08-12T03:37:10.109Z,97425.94
2023-08-12T03:38:12.164Z,97422.72
2023-08-12T03:39:14.499Z,97418.72
2023-08-12T03:40:16.458Z,97428.00
2023-08-12T03:41:18.430Z,97427.19
2023-08-12T03:42:20.536Z,97426.41
2023-08-12T03:43:22.451Z,97429.25
2023-08-12T03:44:24.450Z,97432.09
2023-08-12T03:45:26.513Z,97426.63
2023-08-12T03:46:28.510Z,97430.88
2023-08-12T03:47:30.490Z,97424.00
2023-08-12T03:48:33.112Z,97419.53
2023-08-12T03:49:35.076Z,97427.41
2023-08-12T03:50:38.508Z,97422.72
2023-08-12T03:51:40.759Z,97423.31
2023-08-12T03:52:42.745Z,97424.34
2023-08-12T03:53:44.821Z,97423.78
2023-08-12T03:54:46.710Z,97423.19
2023-08-12T03:55:48.623Z,97419.75
2023-08-12T03:56:50.691Z,97421.00
2023-08-12T03:57:53.352Z,97423.63
2023-08-12T03:58:55.294Z,97411.50
2023-08-12T03:59:57.337Z,97421.81
2023-08-12T04:00:59.265Z,97416.31
2023-08-12T04:02:01.449Z,97415.31
2023-08-12T04:03:03.794Z,97415.31
2023-08-12T04:04:06.118Z,97413.47
2023-08-12T04:05:08.461Z,97410.03
2023-08-12T04:06:10.254Z,97408.19
2023-08-12T04:07:12.423Z,97419.53
2023-08-12T04:08:14.694Z,97417.94
2023-08-12T04:09:16.698Z,97413.47
2023-08-12T04:10:18.728Z,97411.88
2023-08-12T04:11:20.714Z,97411.50
2023-08-12T04:12:22.803Z,97412.75
2023-08-12T04:13:24.777Z,97409.75
2023-08-12T04:14:26.785Z,97410.56
2023-08-12T04:15:29.154Z,97417.66
2023-08-12T04:16:31.039Z,97410.34
2023-08-12T04:17:33.772Z,97413.97
2023-08-12T04:18:35.856Z,97410.34
2023-08-12T04:19:37.771Z,97413.78
2023-08-12T04:20:40.453Z,97418.44
2023-08-12T04:21:42.473Z,97405.50
2023-08-12T04:22:45.835Z,97416.03
2023-08-12T04:23:49.037Z,97405.97
2023-08-12T04:24:50.997Z,97411.66
2023-08-12T04:25:55.577Z,97414.06
2023-08-12T04:26:57.515Z,97420.13
2023-08-12T04:27:59.757Z,97414.28
2023-08-12T04:29:01.702Z,97408.00
2023-08-12T04:30:03.955Z,97419.13
2023-08-12T04:31:11.564Z,97412.03
2023-08-12T04:32:13.682Z,97405.50
2023-08-12T04:33:15.818Z,97408.13
2023-08-12T04:34:18.105Z,97405.75
2023-08-12T04:35:19.946Z,97403.34
2023-08-12T04:36:22.210Z,97415.91
2023-08-12T04:37:25.534Z,97408.22
2023-08-12T04:38:28.815Z,97415.75
2023-08-12T04:39:30.826Z,97409.09
2023-08-12T04:40:34.067Z,97414.38
2023-08-12T04:41:35.991Z,97407.28
2023-08-12T04:42:37.958Z,97406.09
2023-08-12T04:43:39.899Z,97408.75
2023-08-12T04:44:41.858Z,97412.53
2023-08-12T04:45:47.907Z,97409.69
2023-08-12T04:46:49.792Z,97413.13
2023-08-12T04:47:51.817Z,97405.22
2023-08-12T04:48:53.769Z,97403.63
2023-08-12T04:49:55.959Z,97401.81
2023-08-12T04:51:01.509Z,97406.63
2023-08-12T04:52:03.457Z,97406.06
2023-08-12T04:53:06.904Z,97405.22
2023-08-12T04:54:09.260Z,97403.63
2023-08-12T04:55:14.265Z,97402.59
2023-08-12T04:56:16.350Z,97403.19
2023-08-12T04:57:18.307Z,97404.81
2023-08-12T04:58:20.195Z,97397.91
2023-08-12T04:59:22.167Z,97404.00
2023-08-12T05:00:24.863Z,97400.34
2023-08-12T05:01:26.999Z,97407.44
2023-08-12T05:02:29.091Z,97398.28
2023-08-12T05:03:31.232Z,97399.31
2023-08-12T05:04:33.205Z,97397.72
2023-08-12T05:05:35.120Z,97408.44
2023-08-12T05:06:37.191Z,97408.44
2023-08-12T05:07:41.081Z,97405.81
2023-08-12T05:08:43.266Z,97401.59
2023-08-12T05:09:45.426Z,97406.25
2023-08-12T05:10:51.064Z,97409.09
2023-08-12T05:11:53.315Z,97398.59
2023-08-12T05:12:56.231Z,97409.91
2023-08-12T05:13:58.177Z,97398.00
2023-08-12T05:15:00.290Z,97397.22
2023-08-12T05:16:02.392Z,97401.44
2023-08-12T05:17:04.846Z,97396.75
2023-08-12T05:18:07.371Z,97398.38
2023-08-12T05:19:09.274Z,97390.28
2023-08-12T05:20:12.206Z,97383.75
2023-08-12T05:21:14.278Z,97391.19
2023-08-12T05:22:17.347Z,97395.22
2023-08-12T05:23:19.332Z,97395.00
2023-08-12T05:24:25.977Z,97381.84
2023-08-12T05:25:27.950Z,97392.13
2023-08-12T05:27:49.145Z,97378.03
2023-08-12T05:28:51.452Z,97384.56
2023-08-12T05:29:53.282Z,97386.19
2023-08-12T05:30:56.700Z,97382.13
2023-08-12T05:31:58.661Z,97382.97
2023-08-12T05:33:00.719Z,97377.69
2023-08-12T05:34:02.751Z,97386.19
2023-08-12T05:35:04.891Z,97381.72
2023-08-12T05:36:06.861Z,97379.88
2023-08-12T05:37:09.340Z,97384.94
2023-08-12T05:38:11.657Z,97379.09
2023-08-12T05:39:13.431Z,97376.44
2023-08-12T05:40:15.467Z,97382.28
2023-08-12T05:41:17.425Z,97376.38
2023-08-12T05:42:19.430Z,97378.78
2023-08-12T05:43:21.465Z,97383.25
2023-08-12T05:44:23.392Z,97381.41
2023-08-12T05:45:28.460Z,97381.19
2023-08-12T05:46:30.409Z,97379.34
2023-08-12T05:47:33.856Z,97369.63
2023-08-12T05:48:35.888Z,97381.53
2023-08-12T05:49:37.920Z,97371.59
2023-08-12T05:50:39.871Z,97376.28
2023-08-12T05:51:42.708Z,97374.69
2023-08-12T05:52:45.452Z,97375.25
2023-08-12T05:53:47.634Z,97375.25
2023-08-12T05:54:49.535Z,97368.97
2023-08-12T05:55:51.589Z,97376.28
2023-08-12T05:56:53.612Z,97364.94
2023-08-12T05:57:55.526Z,97364.94
2023-08-12T05:58:57.472Z,97376.28
2023-08-12T05:59:59.515Z,97372.84
2023-08-12T06:01:01.760Z,97368.16
2023-08-12T06:02:03.679Z,97374.69
2023-08-12T06:03:05.718Z,97369.41
2023-08-12T06:04:07.646Z,97368.16
2023-08-12T06:05:10.008Z,97367.72
2023-08-12T06:06:11.825Z,97374.94
2023-08-12T06:07:13.833Z,97367.44
2023-08-12T06:08:15.941Z,97367.56
2023-08-12T06:09:17.940Z,97367.13
2023-08-12T06:10:19.860Z,97364.41
2023-08-12T06:11:21.981Z,97362.56
2023-08-12T06:12:23.952Z,97358.69
2023-08-12T06:13:25.841Z,97356.66
2023-08-12T06:14:27.691Z,97351.72
2023-08-12T06:15:29.789Z,97359.97
2023-08-12T06:16:31.760Z,97358.72
2023-08-12T06:17:33.720Z,97351.16
2023-08-12T06:18:35.652Z,97351.53
2023-08-12T06:19:37.645Z,97348.91
2023-08-12T06:20:39.584Z,97343.19
2023-08-12T06:21:41.685Z,97347.19
2023-08-12T06:22:43.643Z,97345.72
2023-08-12T06:23:45.644Z,97343.44
2023-08-12T06:24:47.574Z,97340.34
2023-08-12T06:25:49.628Z,97337.84
2023-08-12T06:26:51.755Z,97340.78
2023-08-12T06:27:53.784Z,97339.09
2023-08-12T06:28:55.776Z,97337.59
2023-08-12T06:29:57.630Z,97337.72
2023-08-12T06:30:59.868Z,97334.41
2023-08-12T06:32:01.826Z,97336.59
2023-08-12T06:33:03.895Z,97334.28
2023-08-12T06:34:05.967Z,97333.03
2023-08-12T06:35:08.362Z,97328.91
2023-08-12T06:36:10.078Z,97331.06
2023-08-12T06:37:11.982Z,97333.25
2023-08-12T06:38:14.889Z,97327.50
2023-08-12T06:39:17.016Z,97334.78
2023-08-12T06:40:18.973Z,97327.19
2023-08-12T06:41:20.858Z,97334.66
2023-08-12T06:42:24.149Z,97334.16
2023-08-12T06:43:28.425Z,97323.19
2023-08-12T06:44:32.033Z,97331.16
2023-08-12T06:45:34.202Z,97331.53
2023-08-12T06:46:36.181Z,97329.22
2023-08-12T06:47:38.650Z,97320.03
2023-08-12T06:48:40.638Z,97327.28
2023-08-12T06:49:42.523Z,97310.97
2023-08-12T06:50:45.097Z,97311.53
2023-08-12T06:51:47.132Z,97309.22
2023-08-12T06:52:49.054Z,97316.66
2023-08-12T06:53:50.974Z,97314.59
2023-08-12T06:54:52.949Z,97314.13
2023-08-12T06:55:55.588Z,97316.84
2023-08-12T06:56:57.595Z,97314.56
2023-08-12T06:57:59.470Z,97316.75
2023-08-12T06:59:01.384Z,97312.59
2023-08-12T07:00:04.380Z,97307.66
2023-08-12T07:01:06.440Z,97308.78
2023-08-12T07:02:08.933Z,97317.81
2023-08-12T07:03:11.091Z,97308.41
2023-08-12T07:04:12.977Z,97302.63
2023-08-12T07:05:15.114Z,97307.19
2023-08-12T07:06:17.074Z,97307.78
2023-08-12T07:07:19.089Z,97309.13
2023-08-12T07:08:21.040Z,97311.28
2023-08-12T07:09:23.018Z,97306.34
2023-08-12T07:10:25.772Z,97301.41
2023-08-12T07:11:28.725Z,97308.84
2023-08-12T07:12:30.790Z,97303.91
2023-08-12T07:13:32.938Z,97302.38
2023-08-12T07:14:34.914Z,97301.09
2023-08-12T07:15:37.207Z,97301.44
2023-08-12T07:16:39.052Z,97307.03
2023-08-12T07:17:41.329Z,97301.53
2023-08-12T07:18:43.204Z,97301.84
2023-08-12T07:19:45.182Z,97297.13
2023-08-12T07:20:47.207Z,97299.03
2023-08-12T07:21:49.170Z,97298.31
2023-08-12T07:22:51.229Z,97294.13
2023-08-12T07:24:03.231Z,97297.91
2023-08-12T07:25:06.598Z,97292.94
2023-08-12T07:26:08.766Z,97290.38
2023-08-12T07:27:10.728Z,97289.88
2023-08-12T07:28:13.270Z,97292.84
2023-08-12T07:29:15.367Z,97280.97
2023-08-12T07:30:17.356Z,97281.53
2023-08-12T07:31:19.611Z,97282.91
2023-08-12T07:32:22.790Z,97283.22
2023-08-12T07:33:26.036Z,97279.28
2023-08-12T07:34:30.242Z,97287.75
2023-08-12T07:35:33.569Z,97282.56
2023-08-12T07:36:35.516Z,97281.03
2023-08-12T07:37:37.446Z,97276.84
2023-08-12T07:38:39.680Z,97274.75
2023-08-12T07:39:41.789Z,97277.75
2023-08-12T07:40:43.756Z,97274.34
2023-08-12T07:41:45.678Z,97280.75
2023-08-12T07:42:47.581Z,97269.44
2023-08-12T07:43:49.528Z,97269.50
2023-08-12T07:44:52.286Z,97276.13
2023-08-12T07:46:07.747Z,97261.38
2023-08-12T07:47:12.112Z,97266.97
2023-08-12T07:48:14.345Z,97268.06
2023-08-12T07:49:17.942Z,97257.00
2023-08-12T07:50:20.133Z,97259.16
2023-08-12T07:51:22.071Z,97262.09
2023-08-12T07:52:24.058Z,97264.00
2023-08-12T07:53:27.158Z,97258.22
2023-08-12T07:54:29.215Z,97257.47
2023-08-12T07:55:31.198Z,97260.41
2023-08-12T07:56:33.100Z,97254.91
2023-08-12T07:57:35.244Z,97251.50
2023-08-12T07:58:37.228Z,97255.25
2023-08-12T07:59:39.272Z,97252.13
2023-08-12T08:00:41.198Z,97248.97
2023-08-12T08:01:43.164Z,97250.06
2023-08-12T08:02:45.094Z,97251.41
2023-08-12T08:03:47.498Z,97248.81
2023-08-12T08:04:52.463Z,97249.13
2023-08-12T08:05:54.735Z,97244.69
2023-08-12T08:06:56.616Z,97246.25
2023-08-12T08:07:58.493Z,97238.38
2023-08-12T08:09:02.025Z,97241.56
2023-08-12T08:10:04.614Z,97246.88
2023-08-12T08:11:06.694Z,97244.53
2023-08-12T08:12:10.229Z,97246.16
2023-08-12T08:13:13.296Z,97243.03
2023-08-12T08:14:15.235Z,97241.47
2023-08-12T08:15:17.724Z,97234.84
2023-08-12T08:16:19.541Z,97231.94
2023-08-12T08:17:21.395Z,97235.69
2023-08-12T08:18:23.338Z,97228.28
2023-08-12T08:19:29.883Z,97230.69
2023-08-12T08:20:32.872Z,97227.00
2023-08-12T08:21:34.643Z,97228.34
2023-08-12T08:22:36.479Z,97223.06
2023-08-12T08:23:38.458Z,97222.56
2023-08-12T08:24:40.347Z,97222.06
2023-08-12T08:25:42.489Z,97221.53
2023-08-12T08:26:46.908Z,97228.69
2023-08-12T08:27:48.693Z,97221.81
2023-08-12T08:28:50.494Z,97227.97
2023-08-12T08:29:52.213Z,97216.88
2023-08-12T08:30:53.966Z,97215.53
2023-08-12T08:31:55.732Z,97216.63
2023-08-12T08:32:57.762Z,97220.59
2023-08-12T08:33:59.810Z,97218.53
2023-08-12T08:35:01.552Z,97216.16
2023-08-12T08:36:03.507Z,97212.72
2023-08-12T08:37:05.404Z,97214.56
2023-08-12T08:38:08.905Z,97211.13
2023-08-12T08:39:10.797Z,97205.84
2023-08-12T08:40:13.318Z,97208.00
2023-08-12T08:41:18.232Z,97209.59
2023-08-12T08:42:22.072Z,97209.88
2023-08-12T08:43:24.639Z,97207.19
2023-08-12T08:44:33.403Z,97205.91
2023-08-12T08:45:35.854Z,97209.63
2023-08-12T08:46:38.090Z,97202.19
2023-08-12T08:47:42.474Z,97209.38
2023-08-12T08:48:44.578Z,97212.28
2023-08-12T08:49:46.435Z,97204.06
2023-08-12T08:50:49.395Z,97211.25
2023-08-12T08:51:52.286Z,97208.88
2023-08-12T08:52:55.072Z,97211.78
2023-08-12T08:53:58.504Z,97207.28
2023-08-12T08:55:08.123Z,97215.00
2023-08-12T08:56:16.069Z,97211.53
2023-08-12T08:57:24.394Z,97207.81
2023-08-12T08:58:30.156Z,97207.31
2023-08-12T08:59:32.324Z,97209.16
2023-08-12T09:00:34.351Z,97208.63
2023-08-12T09:01:36.565Z,97203.84
2023-08-12T09:02:38.824Z,97205.69
2023-08-12T09:03:42.169Z,97205.97
2023-08-12T09:04:45.315Z,97200.13
2023-08-12T09:05:47.655Z,97202.75
2023-08-12T09:06:51.004Z,97202.22
2023-08-12T09:07:53.318Z,97206.22
2023-08-12T09:08:55.561Z,97207.25
2023-08-12T09:09:57.954Z,97206.22
2023-08-12T09:11:03.789Z,97196.91
2023-08-12T09:12:05.995Z,97199.28
2023-08-12T09:13:08.331Z,97193.44
2023-08-12T09:14:10.142Z,97191.03
2023-08-12T09:15:11.937Z,97201.66
2023-08-12T09:16:13.857Z,97187.31
2023-08-12T09:17:16.404Z,97188.38
2023-08-12T09:18:18.724Z,97192.09
2023-08-12T09:19:20.523Z,97196.31
2023-08-12T09:20:22.515Z,97188.56
2023-08-12T09:21:24.648Z,97198.41
2023-08-12T09:22:27.191Z,97188.53
2023-08-12T09:23:29.002Z,97183.19
2023-08-12T09:24:31.195Z,97178.94
2023-08-12T09:25:33.508Z,97178.66
2023-08-12T09:26:35.813Z,97171.16
2023-08-12T09:27:39.260Z,97177.78
2023-08-12T09:28:41.930Z,97169.25
2023-08-12T09:29:43.899Z,97173.22
2023-08-12T09:30:55.319Z,97172.41
2023-08-12T09:32:19.303Z,97170.53
2023-08-12T09:33:30.114Z,97176.63
2023-08-12T09:34:32.560Z,97174.22
2023-08-12T09:35:36.640Z,97176.84
2023-08-12T09:36:38.603Z,97173.13
2023-08-12T09:37:40.592Z,97174.16
2023-08-12T09:38:42.871Z,97175.97
2023-08-12T09:39:44.871Z,97172.47
2023-08-12T09:40:48.814Z,97172.19
2023-08-12T09:41:52.429Z,97165.75
2023-08-12T09:42:54.373Z,97169.44
2023-08-12T09:43:58.456Z,97171.00
2023-08-12T09:45:00.505Z,97168.28
2023-08-12T09:46:04.378Z,97163.97
2023-08-12T09:47:09.772Z,97160.50
2023-08-12T09:48:12.472Z,97165.22
2023-08-12T09:49:15.389Z,97166.22
2023-08-12T09:50:17.636Z,97167.75
2023-08-12T09:51:19.932Z,97162.09
2023-08-12T09:52:23.282Z,97160.66
2023-08-12T09:53:25.048Z,97158.47
2023-08-12T09:54:29.786Z,97153.66
2023-08-12T09:55:33.175Z,97155.47
2023-08-12T09:56:37.757Z,97150.28
2023-08-12T09:57:42.230Z,97159.63
2023-08-12T09:58:45.427Z,97155.31
2023-08-12T09:59:47.964Z,97155.81
2023-08-12T10:00:50.303Z,97151.22
2023-08-12T10:01:53.837Z,97147.72
2023-08-12T10:02:56.418Z,97147.97
2023-08-12T10:03:58.232Z,97148.97
2023-08-12T10:05:01.052Z,97150.53
2023-08-12T10:06:05.691Z,97145.94
2023-08-12T10:07:07.977Z,97147.19
2023-08-12T10:08:11.216Z,97144.44
2023-08-12T10:09:13.544Z,97140.03
2023-08-12T10:10:18.660Z,97140.97
2023-08-12T10:11:20.516Z,97139.25
2023-08-12T10:12:23.043Z,97137.00
2023-08-12T10:13:24.886Z,97144.66
2023-08-12T10:14:27.322Z,97142.13
2023-08-12T10:15:29.552Z,97137.22
2023-08-12T10:16:31.521Z,97139.47
2023-08-12T10:17:43.090Z,97132.94
2023-08-12T10:18:47.959Z,97132.47
2023-08-12T10:19:50.122Z,97126.47
2023-08-12T10:20:52.938Z,97135.38
2023-08-12T10:21:58.037Z,97122.41
2023-08-12T10:23:01.014Z,97133.25
2023-08-12T10:24:04.442Z,97122.94
2023-08-12T10:25:09.348Z,97125.03
2023-08-12T10:26:11.170Z,97113.72
2023-08-12T10:27:14.237Z,97124.34
2023-08-12T10:28:16.420Z,97117.00
2023-08-12T10:29:18.506Z,97118.69
2023-08-12T10:30:21.918Z,97110.25
2023-08-12T10:31:23.872Z,97122.13
2023-08-12T10:32:28.714Z,97121.75
2023-08-12T10:33:30.550Z,97119.16
2023-08-12T10:34:32.940Z,97114.19
2023-08-12T10:35:48.169Z,97112.97
2023-08-12T10:37:02.004Z,97106.09
2023-08-12T10:38:06.872Z,97105.56
2023-08-12T10:39:11.757Z,97108.59
2023-08-12T10:40:23.819Z,97103.13
2023-08-12T10:41:27.030Z,97098.16
2023-08-12T10:42:42.566Z,97098.84
2023-08-12T10:44:05.253Z,97104.25
2023-08-12T10:45:07.169Z,97098.94
2023-08-12T10:46:22.599Z,97093.63
2023-08-12T10:47:24.383Z,97093.66
2023-08-12T10:48:26.829Z,97094.22
2023-08-12T10:49:28.685Z,97099.00
2023-08-12T10:50:32.460Z,97097.94
2023-08-12T10:51:46.112Z,97090.72
2023-08-12T10:52:48.599Z,97095.94
2023-08-12T10:53:51.362Z,97086.63
2023-08-12T10:54:53.856Z,97092.53
2023-08-12T10:55:56.179Z,97080.69
2023-08-12T10:57:07.280Z,97081.97
2023-08-12T10:58:10.194Z,97076.97
2023-08-12T10:59:31.906Z,97081.84
2023-08-12T11:00:33.752Z,97069.53
2023-08-12T11:01:36.317Z,97072.88
2023-08-12T11:02:39.039Z,97076.16
2023-08-12T11:03:43.865Z,97078.56
2023-08-12T11:04:49.438Z,97080.44
2023-08-12T11:05:51.990Z,97077.94
2023-08-12T11:06:53.881Z,97072.84
2023-08-12T11:07:59.919Z,97075.06
2023-08-12T11:09:01.836Z,97066.50
2023-08-12T11:10:10.890Z,97072.50
2023-08-12T11:11:23.658Z,97069.59
2023-08-12T11:12:32.453Z,97069.91
2023-08-12T11:13:47.610Z,97064.69
2023-08-12T11:14:50.921Z,97071.00
2023-08-12T11:15:52.738Z,97066.88
2023-08-12T11:16:54.758Z,97075.59
2023-08-12T11:17:56.627Z,97066.22
2023-08-12T11:18:59.023Z,97068.75
2023-08-12T11:20:01.967Z,97064.28
2023-08-12T11:21:04.744Z,97069.94
2023-08-12T11:22:06.755Z,97063.41
2023-08-12T11:23:09.349Z,97056.84
2023-08-12T11:24:11.739Z,97052.09
2023-08-12T11:25:14.756Z,97060.44
2023-08-12T11:26:16.841Z,97054.06
2023-08-12T11:27:19.357Z,97057.69
2023-08-12T11:28:21.372Z,97059.41
2023-08-12T11:29:23.045Z,97057.88
2023-08-12T11:30:25.792Z,97057.03
2023-08-12T11:31:29.286Z,97050.34
2023-08-12T11:32:31.141Z,97054.28
2023-08-12T11:33:33.091Z,97059.47
2023-08-12T11:34:35.122Z,97056.13
2023-08-12T11:35:38.841Z,97046.25
2023-08-12T11:36:40.657Z,97048.13
2023-08-12T11:37:43.206Z,97045.34
2023-08-12T11:38:45.208Z,97042.78
2023-08-12T11:39:46.996Z,97037.97
2023-08-12T11:40:48.857Z,97041.69
2023-08-12T11:41:51.744Z,97042.47
2023-08-12T11:42:53.937Z,97039.44
2023-08-12T11:43:55.706Z,97040.38
2023-08-12T11:44:57.692Z,97037.44
2023-08-12T11:46:00.196Z,97035.97
2023-08-12T11:47:02.234Z,97033.63
2023-08-12T11:48:05.628Z,97031.72
2023-08-12T11:49:07.396Z,97027.09
2023-08-12T11:50:10.807Z,97031.03
2023-08-12T11:51:13.206Z,97036.56
2023-08-12T11:52:15.908Z,97025.88
2023-08-12T11:53:18.489Z,97025.03
2023-08-12T11:54:20.214Z,97030.22
2023-08-12T11:55:22.348Z,97022.56
2023-08-12T11:56:24.192Z,97021.88
2023-08-12T11:57:27.489Z,97026.72
2023-08-12T11:58:47.413Z,97024.13
2023-08-12T12:00:01.201Z,97023.69
2023-08-12T12:01:03.730Z,97023.03
2023-08-12T12:02:05.764Z,97016.81
2023-08-12T12:03:07.918Z,97020.41
2023-08-12T12:04:11.850Z,97016.16
2023-08-12T12:05:14.458Z,97020.53
2023-08-12T12:06:16.361Z,97020.66
2023-08-12T12:07:20.898Z,97021.69
2023-08-12T12:08:23.761Z,97015.38
2023-08-12T12:09:27.398Z,97018.53
2023-08-12T12:10:34.838Z,97014.81
2023-08-12T12:11:41.066Z,97013.00
2023-08-12T12:12:43.076Z,97009.72
2023-08-12T12:13:48.527Z,97009.94
2023-08-12T12:14:51.932Z,97006.47
2023-08-12T12:15:54.107Z,97000.38
2023-08-12T12:16:56.203Z,97002.84
2023-08-12T12:17:57.999Z,97002.16
2023-08-12T12:19:00.092Z,96999.13
2023-08-12T12:20:02.439Z,96996.63
2023-08-12T12:21:04.343Z,97002.13
2023-08-12T12:22:06.825Z,96999.97